Time;durP1;ratioP1;P1;durP2;ratioP2;P2;SDS_P1;SDS_P2;PMS_P1;PMS_P2;Temp;Humidity;BMP_temperature;BMP_pressure;BME280_temperature;BME280_humidity;BME280_pressure;Samples;Min_cycle;Max_cycle;Signal;HPM_P1;HPM_P2
2021/10/11 00:01:26;;;;;;;12.35;6.25;;;;;;;13.70;49.43;100755.09;4361633;32;33908;-85
2021/10/11 00:03:55;;;;;;;17.17;6.97;;;;;;;14.02;48.34;100760.34;4375281;32;35205;-86
2021/10/11 00:06:23;;;;;;;13.38;6.57;;;;;;;13.93;48.61;100765.84;4349256;32;34392;-84
2021/10/11 00:08:51;;;;;;;14.27;7.12;;;;;;;13.91;49.05;100762.44;4349187;32;33479;-86
2021/10/11 00:11:19;;;;;;;10.63;6.93;;;;;;;14.02;49.26;100755.09;4336856;32;34230;-84
2021/10/11 00:13:47;;;;;;;14.35;7.05;;;;;;;13.86;49.97;100760.78;4361703;32;34851;-85
2021/10/11 00:16:16;;;;;;;13.82;7.43;;;;;;;14.08;49.58;100764.53;4361099;32;34313;-85
2021/10/11 00:18:44;;;;;;;13.55;7.25;;;;;;;14.05;50.11;100770.72;4348722;32;32484;-85
2021/10/11 00:21:13;;;;;;;15.73;6.95;;;;;;;13.95;50.09;100770.16;4361586;32;34511;-86
2021/10/11 00:23:42;;;;;;;15.73;7.18;;;;;;;13.44;52.50;100766.31;4361256;32;32828;-86
2021/10/11 00:26:10;;;;;;;15.63;6.80;;;;;;;13.60;53.03;100772.00;4348680;32;33859;-85
2021/10/11 00:28:38;;;;;;;14.65;7.32;;;;;;;13.65;52.68;100758.75;4361267;32;35090;-85
2021/10/11 00:31:10;;;;;;;14.25;6.85;;;;;;;13.75;51.87;100748.87;4348615;32;33701;-85
2021/10/11 00:33:39;;;;;;;12.85;7.00;;;;;;;13.92;51.41;100751.03;4361292;32;34126;-84
2021/10/11 00:36:07;;;;;;;13.82;7.05;;;;;;;13.89;51.80;100745.87;4361067;32;32546;-86
2021/10/11 00:38:35;;;;;;;15.50;7.68;;;;;;;13.93;50.64;100748.34;4361635;32;34605;-85
2021/10/11 00:41:04;;;;;;;10.70;6.57;;;;;;;13.10;54.64;100745.34;4336717;32;32918;-84
2021/10/11 00:43:31;;;;;;;13.35;7.07;;;;;;;13.31;54.62;100739.56;4361323;32;34872;-85
2021/10/11 00:45:59;;;;;;;15.02;7.28;;;;;;;13.04;54.57;100741.13;4348649;32;33423;-85
2021/10/11 00:48:29;;;;;;;14.50;7.03;;;;;;;13.44;53.97;100739.25;4348878;32;33689;-86
2021/10/11 00:50:57;;;;;;;14.45;7.95;;;;;;;13.62;53.22;100735.28;4348881;32;34094;-84
2021/10/11 00:53:26;;;;;;;13.45;7.30;;;;;;;13.95;51.37;100735.25;4361235;32;33842;-84
2021/10/11 00:55:54;;;;;;;14.43;8.20;;;;;;;13.86;51.65;100733.72;4361106;32;33358;-85
2021/10/11 00:58:23;;;;;;;14.27;7.53;;;;;;;13.97;51.25;100734.28;4348669;32;32529;-85
2021/10/11 01:00:50;;;;;;;13.02;7.47;;;;;;;13.40;52.98;100740.25;4361294;32;34509;-85
2021/10/11 01:03:19;;;;;;;17.55;8.50;;;;;;;13.58;52.56;100746.75;4348922;32;33131;-85
2021/10/11 01:05:47;;;;;;;12.15;8.18;;;;;;;13.76;52.23;100732.28;4348076;32;32365;-85
2021/10/11 01:08:14;;;;;;;15.63;8.10;;;;;;;13.78;51.95;100735.72;4359886;32;34934;-84
2021/10/11 01:10:45;;;;;;;12.45;7.45;;;;;;;13.90;51.47;100732.72;4360407;32;34363;-85
2021/10/11 01:13:14;;;;;;;14.87;7.80;;;;;;;13.84;51.37;100725.03;4365946;32;34318;-84
2021/10/11 01:15:42;;;;;;;14.32;8.00;;;;;;;13.91;51.05;100726.59;4360331;32;31939;-84
2021/10/11 01:18:11;;;;;;;14.70;7.82;;;;;;;14.03;50.48;100726.22;4362337;32;33539;-84
2021/10/11 01:20:39;;;;;;;13.82;7.85;;;;;;;13.72;51.56;100723.66;4349075;32;33556;-85
2021/10/11 01:23:07;;;;;;;13.43;7.60;;;;;;;13.81;51.30;100725.13;4360662;32;34550;-84
2021/10/11 01:25:36;;;;;;;14.27;7.12;;;;;;;14.19;49.92;100724.00;4360847;32;33872;-86
2021/10/11 01:28:03;;;;;;;12.75;7.28;;;;;;;13.99;50.12;100722.00;4348256;32;32915;-84
2021/10/11 01:30:32;;;;;;;14.98;7.28;;;;;;;13.88;50.28;100723.19;4348409;32;33711;-85
2021/10/11 01:33:01;;;;;;;12.05;6.97;;;;;;;13.93;50.29;100711.69;4348534;32;33166;-84
2021/10/11 01:35:29;;;;;;;15.00;7.87;;;;;;;13.93;50.57;100716.06;4360511;32;33402;-85
2021/10/11 01:37:56;;;;;;;15.40;7.78;;;;;;;14.01;50.03;100706.22;4360700;32;33707;-86
2021/10/11 01:40:26;;;;;;;12.95;6.35;;;;;;;13.89;49.96;100702.19;4360586;32;34036;-85
2021/10/11 01:42:53;;;;;;;12.75;6.62;;;;;;;13.88;49.82;100712.72;4360332;32;33578;-84
2021/10/11 01:45:21;;;;;;;13.32;6.97;;;;;;;13.91;49.65;100712.66;4347807;32;33334;-84
2021/10/11 01:47:50;;;;;;;13.10;7.12;;;;;;;13.97;49.54;100702.84;4360365;32;34091;-84
2021/10/11 01:50:18;;;;;;;11.05;6.97;;;;;;;14.02;49.40;100700.09;4347755;32;33878;-85
2021/10/11 01:52:45;;;;;;;12.52;7.10;;;;;;;14.04;49.26;100695.66;4347703;32;33434;-85
2021/10/11 01:55:14;;;;;;;11.52;7.35;;;;;;;13.77;50.24;100689.47;4360321;32;33486;-85
2021/10/11 01:57:42;;;;;;;14.23;8.00;;;;;;;13.45;51.47;100691.25;4360003;32;32801;-85
2021/10/11 02:00:11;;;;;;;13.10;7.78;;;;;;;13.68;51.00;100687.97;4360169;32;33622;-87
2021/10/11 02:02:41;;;;;;;15.95;7.60;;;;;;;13.64;51.36;100692.44;4347543;32;34255;-85
2021/10/11 02:05:09;;;;;;;18.12;7.78;;;;;;;13.57;51.78;100684.81;4347759;32;32720;-85
2021/10/11 02:07:37;;;;;;;12.77;8.05;;;;;;;13.76;51.18;100685.13;4347463;32;32759;-84
2021/10/11 02:10:07;;;;;;;15.30;8.30;;;;;;;13.83;51.11;100681.44;4360025;32;33021;-85
2021/10/11 02:12:35;;;;;;;13.55;8.25;;;;;;;13.69;51.67;100685.31;4359800;32;33070;-85
2021/10/11 02:15:05;;;;;;;20.23;9.48;;;;;;;13.58;52.11;100682.13;4347963;32;32735;-83
2021/10/11 02:17:34;;;;;;;14.18;8.30;;;;;;;13.82;51.60;100674.47;4335806;32;33540;-84
2021/10/11 02:20:04;;;;;;;17.77;8.35;;;;;;;13.64;52.00;100674.13;4360316;32;33539;-85
2021/10/11 02:22:32;;;;;;;17.17;8.97;;;;;;;13.64;52.18;100661.03;4362415;32;33491;-84
2021/10/11 02:25:01;;;;;;;17.17;10.27;;;;;;;13.66;52.29;100655.75;4350149;32;33170;-86
2021/10/11 02:27:29;;;;;;;17.58;9.00;;;;;;;13.74;52.24;100650.28;4361999;32;34576;-85
2021/10/11 02:29:57;;;;;;;14.65;8.75;;;;;;;13.68;52.52;100649.56;4361760;32;33190;-87
2021/10/11 02:32:26;;;;;;;15.88;8.38;;;;;;;13.42;53.26;100649.44;4362126;32;34032;-85
2021/10/11 02:34:53;;;;;;;15.30;8.77;;;;;;;13.70;52.50;100650.34;4362023;32;33704;-85
2021/10/11 02:37:22;;;;;;;17.62;9.00;;;;;;;13.34;53.52;100653.09;4362199;32;33902;-84
2021/10/11 02:39:55;;;;;;;14.25;8.80;;;;;;;13.41;53.39;100645.12;4362167;32;35095;-86
2021/10/11 02:42:23;;;;;;;16.80;9.13;;;;;;;13.32;53.45;100648.81;4361773;32;33210;-84
2021/10/11 02:44:52;;;;;;;15.88;8.45;;;;;;;13.38;53.34;100647.81;4349946;32;32625;-85
2021/10/11 02:47:20;;;;;;;17.05;8.75;;;;;;;13.26;53.58;100642.00;4349214;32;32493;-84
2021/10/11 02:49:48;;;;;;;14.02;8.38;;;;;;;13.45;53.06;100641.50;4349508;32;33712;-84
2021/10/11 02:52:16;;;;;;;13.13;7.90;;;;;;;13.59;52.63;100639.34;4361972;32;34031;-84
2021/10/11 02:54:44;;;;;;;16.52;8.13;;;;;;;13.48;53.03;100644.03;4349546;32;32902;-85
2021/10/11 02:57:12;;;;;;;13.40;8.88;;;;;;;13.51;52.98;100636.09;4349350;32;32559;-86
2021/10/11 02:59:40;;;;;;;19.83;9.73;;;;;;;13.59;52.94;100641.09;4349528;32;33008;-85
2021/10/11 03:02:07;;;;;;;19.50;8.90;;;;;;;13.29;53.59;100641.88;4362419;32;34118;-85
2021/10/11 03:04:35;;;;;;;16.55;9.40;;;;;;;13.47;53.16;100637.94;4362061;32;33295;-85
2021/10/11 03:07:03;;;;;;;13.55;7.85;;;;;;;13.49;53.16;100645.75;4349624;32;33915;-85
2021/10/11 03:09:31;;;;;;;16.87;9.07;;;;;;;13.25;53.96;100636.81;4349250;32;34164;-86
2021/10/11 03:11:59;;;;;;;20.33;8.90;;;;;;;13.35;53.38;100641.72;4361690;32;34661;-86
2021/10/11 03:14:27;;;;;;;19.40;9.63;;;;;;;13.42;53.04;100638.97;4349416;32;33243;-86
2021/10/11 03:16:55;;;;;;;14.63;8.55;;;;;;;13.33;53.27;100625.19;4349447;32;32851;-85
2021/10/11 03:19:22;;;;;;;16.12;8.68;;;;;;;13.41;52.96;100626.78;4349208;32;33402;-85
2021/10/11 03:21:52;;;;;;;17.27;8.43;;;;;;;13.57;52.68;100628.06;4348747;32;34201;-85
2021/10/11 03:24:19;;;;;;;32.42;8.70;;;;;;;13.62;52.39;100623.53;4348732;32;32401;-85
2021/10/11 03:26:47;;;;;;;15.40;8.60;;;;;;;13.00;54.13;100614.78;4349080;32;33422;-86
2021/10/11 03:29:17;;;;;;;17.75;8.65;;;;;;;13.20;53.62;100613.37;4361770;32;33481;-86
2021/10/11 03:31:45;;;;;;;18.12;8.02;;;;;;;13.32;53.17;100618.28;4348927;32;33438;-85
2021/10/11 03:34:15;;;;;;;14.13;7.20;;;;;;;13.36;52.96;100606.84;4349403;32;32627;-86
2021/10/11 03:36:43;;;;;;;14.77;8.20;;;;;;;13.35;53.04;100612.09;4349087;32;33506;-85
2021/10/11 03:39:11;;;;;;;12.88;8.07;;;;;;;13.16;53.29;100604.75;4349154;32;33508;-86
2021/10/11 03:41:40;;;;;;;16.83;8.02;;;;;;;12.97;53.92;100606.16;4349244;32;32893;-85
2021/10/11 03:44:09;;;;;;;14.68;8.10;;;;;;;12.85;54.21;100613.41;4361419;32;33233;-85
2021/10/11 03:46:37;;;;;;;17.52;9.25;;;;;;;13.30;53.10;100604.34;4348611;32;33166;-86
2021/10/11 03:49:05;;;;;;;16.75;8.35;;;;;;;13.15;53.47;100600.41;4361371;32;34339;-85
2021/10/11 03:51:34;;;;;;;18.62;9.02;;;;;;;13.33;53.27;100598.19;4349182;32;33494;-86
2021/10/11 03:54:02;;;;;;;16.17;9.27;;;;;;;13.16;53.90;100596.03;4349101;32;32837;-85
2021/10/11 03:56:30;;;;;;;13.73;8.85;;;;;;;13.34;53.49;100594.66;4360993;32;33335;-86
2021/10/11 03:58:58;;;;;;;17.73;8.73;;;;;;;13.62;52.59;100599.97;4361555;32;34378;-85
2021/10/11 04:01:26;;;;;;;21.05;9.10;;;;;;;13.46;52.98;100598.72;4349066;32;33972;-86
2021/10/11 04:03:54;;;;;;;16.17;8.82;;;;;;;13.38;53.33;100600.72;4373846;32;33409;-85
2021/10/11 04:06:23;;;;;;;17.35;9.20;;;;;;;13.30;53.17;100587.81;4349191;32;33634;-85
2021/10/11 04:08:51;;;;;;;14.23;8.35;;;;;;;13.23;53.62;100594.97;4348471;32;34342;-86
2021/10/11 04:13:48;;;;;;;18.67;9.18;;;;;;;13.34;53.80;100589.44;4361181;32;34271;-85
2021/10/11 04:16:16;;;;;;;14.90;9.23;;;;;;;13.46;53.79;100593.50;4348442;32;33950;-85
2021/10/11 04:18:44;;;;;;;18.45;9.80;;;;;;;12.98;55.87;100587.81;4348614;32;32558;-85
2021/10/11 04:21:12;;;;;;;20.17;10.05;;;;;;;13.46;54.79;100594.34;4351341;32;32882;-84
2021/10/11 04:23:40;;;;;;;19.50;10.27;;;;;;;13.34;55.52;100592.06;4370849;32;34031;-85
2021/10/11 04:26:08;;;;;;;18.70;10.63;;;;;;;13.34;55.98;100595.50;4362649;32;34212;-86
2021/10/11 04:28:36;;;;;;;17.98;9.90;;;;;;;13.31;55.96;100589.53;4362436;32;33460;-85
2021/10/11 04:31:06;;;;;;;15.07;9.80;;;;;;;12.72;56.62;100603.34;4349045;32;32945;-86
2021/10/11 04:33:34;;;;;;;15.85;9.85;;;;;;;12.70;57.53;100604.22;4349994;32;33111;-86
2021/10/11 04:36:02;;;;;;;17.87;9.20;;;;;;;12.63;57.32;100609.66;4349440;32;33392;-85
2021/10/11 04:38:30;;;;;;;17.60;8.88;;;;;;;12.75;56.74;100604.13;4361382;32;34160;-84
2021/10/11 04:41:01;;;;;;;15.75;9.15;;;;;;;13.18;55.45;100595.09;4349355;32;33022;-86
2021/10/11 04:43:29;;;;;;;16.73;9.00;;;;;;;12.96;56.47;100602.69;4335917;32;32972;-85
2021/10/11 04:45:56;;;;;;;15.13;9.55;;;;;;;12.91;56.48;100594.13;4361557;32;34347;-85
2021/10/11 04:48:26;;;;;;;16.73;9.38;;;;;;;13.08;56.04;100600.63;4348708;32;34393;-84
2021/10/11 04:50:53;;;;;;;17.02;8.70;;;;;;;13.18;55.20;100594.25;4361441;32;33288;-86
2021/10/11 04:53:21;;;;;;;17.65;10.05;;;;;;;13.09;55.13;100587.50;4349318;32;33705;-85
2021/10/11 04:55:49;;;;;;;17.90;9.35;;;;;;;12.77;56.01;100588.38;4349411;32;33702;-83
2021/10/11 04:58:17;;;;;;;16.87;9.45;;;;;;;12.90;56.20;100581.09;4361142;32;33423;-84
2021/10/11 05:00:44;;;;;;;16.30;9.27;;;;;;;12.61;56.59;100591.38;4349182;32;34052;-83
2021/10/11 05:03:12;;;;;;;20.17;9.85;;;;;;;12.62;56.88;100590.50;4349340;32;32419;-84
2021/10/11 05:05:40;;;;;;;15.27;9.60;;;;;;;13.00;55.81;100588.63;4364251;32;33957;-83
2021/10/11 05:08:08;;;;;;;17.50;9.90;;;;;;;12.58;57.24;100593.22;4348404;32;32832;-84
2021/10/11 05:10:37;;;;;;;17.27;9.52;;;;;;;12.77;56.97;100598.84;4334949;32;32470;-84
2021/10/11 05:13:05;;;;;;;15.50;9.20;;;;;;;12.53;57.16;100593.34;4346677;32;33004;-85
2021/10/11 05:15:32;;;;;;;15.77;9.32;;;;;;;12.52;57.05;100589.87;4356286;32;34030;-83
2021/10/11 05:18:01;;;;;;;15.13;9.05;;;;;;;12.52;56.85;100582.06;4348926;32;33193;-84
2021/10/11 05:20:32;;;;;;;17.00;9.05;;;;;;;12.62;56.63;100582.66;4348864;32;33807;-84
2021/10/11 05:23:01;;;;;;;17.27;9.57;;;;;;;12.36;57.23;100589.41;4349211;32;33281;-83
2021/10/11 05:25:28;;;;;;;13.75;8.50;;;;;;;12.49;56.44;100589.94;4348830;32;33914;-84
2021/10/11 05:27:56;;;;;;;22.50;13.50;;;;;;;12.30;56.79;100594.78;4349182;32;34060;-83
2021/10/11 05:30:25;;;;;;;20.52;11.30;;;;;;;12.63;55.88;100592.22;4361078;32;34891;-84
2021/10/11 05:32:53;;;;;;;28.52;13.10;;;;;;;12.29;56.61;100587.84;4360077;32;33123;-82
2021/10/11 05:35:21;;;;;;;23.62;13.90;;;;;;;12.64;55.86;100593.06;4349880;32;34309;-83
2021/10/11 05:37:49;;;;;;;21.12;11.63;;;;;;;12.90;55.04;100589.78;4350808;32;33362;-83
2021/10/11 05:40:17;;;;;;;21.77;11.23;;;;;;;13.05;54.71;100598.09;4363024;32;32708;-84
2021/10/11 05:42:46;;;;;;;37.45;24.48;;;;;;;12.96;54.78;100592.22;4361576;32;33842;-83
2021/10/11 05:45:14;;;;;;;24.80;13.93;;;;;;;12.92;54.91;100597.56;4362362;32;33574;-84
2021/10/11 05:47:42;;;;;;;19.40;9.55;;;;;;;13.00;54.62;100598.22;4349010;32;32639;-85
2021/10/11 05:50:11;;;;;;;15.90;9.75;;;;;;;12.81;55.04;100600.47;4350236;32;33104;-85
2021/10/11 05:52:39;;;;;;;17.62;9.90;;;;;;;13.09;54.58;100599.72;4360851;32;33120;-85
2021/10/11 05:55:08;;;;;;;17.92;10.02;;;;;;;12.91;54.88;100598.47;4361542;32;33234;-84
2021/10/11 05:57:41;;;;;;;18.27;11.07;;;;;;;13.11;54.21;100603.16;4350815;32;33580;-85
2021/10/11 06:00:10;;;;;;;16.70;8.63;;;;;;;13.27;53.65;100595.72;4351335;32;33968;-85
2021/10/11 06:02:39;;;;;;;18.77;9.75;;;;;;;13.32;53.45;100606.94;4350389;32;33990;-83
2021/10/11 06:05:07;;;;;;;15.35;8.82;;;;;;;13.24;53.42;100609.75;4362985;32;34045;-84
2021/10/11 06:07:35;;;;;;;21.27;10.40;;;;;;;13.41;52.96;100608.47;4350605;32;33171;-83
2021/10/11 06:10:04;;;;;;;21.50;11.77;;;;;;;13.50;52.81;100613.44;4350204;32;34117;-84
2021/10/11 06:12:32;;;;;;;18.12;9.90;;;;;;;13.57;52.63;100620.19;4351077;32;32881;-83
2021/10/11 06:15:00;;;;;;;20.15;10.48;;;;;;;13.50;52.84;100621.28;4340419;32;33214;-83
2021/10/11 06:17:29;;;;;;;17.25;8.77;;;;;;;13.77;52.19;100622.22;4339098;32;35947;-85
2021/10/11 06:19:57;;;;;;;16.23;8.85;;;;;;;13.75;52.43;100620.53;4362778;32;34745;-84
2021/10/11 06:22:25;;;;;;;16.05;9.25;;;;;;;14.05;51.68;100624.00;4340508;32;31935;-84
2021/10/11 06:24:53;;;;;;;19.17;9.25;;;;;;;14.13;51.28;100623.75;4365055;32;34984;-83
2021/10/11 06:27:21;;;;;;;17.60;8.85;;;;;;;14.06;51.17;100624.88;4351769;32;33434;-84
2021/10/11 06:29:48;;;;;;;15.70;8.82;;;;;;;14.02;51.40;100634.59;4351777;32;33687;-85
2021/10/11 06:32:16;;;;;;;12.50;8.05;;;;;;;14.16;51.26;100631.50;4364829;32;33695;-85
2021/10/11 06:34:44;;;;;;;15.63;9.00;;;;;;;13.96;51.36;100634.75;4352489;32;34468;-86
2021/10/11 06:37:12;;;;;;;14.65;9.00;;;;;;;13.96;51.51;100632.12;4365083;32;34273;-85
2021/10/11 06:39:42;;;;;;;18.30;9.35;;;;;;;13.79;52.23;100633.53;4352299;32;32761;-85
2021/10/11 06:42:13;;;;;;;16.42;10.52;;;;;;;14.07;51.28;100623.97;4364108;32;33766;-85
2021/10/11 06:44:42;;;;;;;33.45;23.05;;;;;;;14.10;51.44;100627.34;4352138;32;34606;-85
2021/10/11 06:47:11;;;;;;;19.48;9.95;;;;;;;14.10;51.64;100629.94;4364826;32;33695;-85
2021/10/11 06:49:42;;;;;;;32.28;20.33;;;;;;;14.20;51.33;100631.38;4364857;32;32972;-84
2021/10/11 06:52:15;;;;;;;18.92;11.02;;;;;;;14.07;51.60;100630.06;4352808;32;32218;-84
2021/10/11 06:54:43;;;;;;;18.95;9.68;;;;;;;13.97;52.02;100637.34;4365121;32;34199;-83
2021/10/11 06:57:11;;;;;;;17.83;8.63;;;;;;;14.20;51.64;100630.53;4339672;32;33961;-84
2021/10/11 06:59:39;;;;;;;19.35;9.52;;;;;;;13.89;52.41;100633.25;4362966;32;33554;-85
2021/10/11 07:02:08;;;;;;;16.35;9.40;;;;;;;13.91;52.65;100639.31;4362973;32;34189;-83
2021/10/11 07:04:41;;;;;;;16.92;9.07;;;;;;;14.10;52.72;100632.56;4363512;32;33780;-83
2021/10/11 07:07:10;;;;;;;16.90;9.70;;;;;;;13.92;53.37;100638.38;4349994;32;34398;-84
2021/10/11 07:09:39;;;;;;;21.37;11.25;;;;;;;13.82;53.27;100632.56;4350494;32;33228;-84
2021/10/11 07:12:07;;;;;;;17.00;9.55;;;;;;;14.04;53.23;100640.66;4363207;32;34001;-85
2021/10/11 07:14:35;;;;;;;18.00;9.80;;;;;;;14.03;54.20;100641.53;4356090;32;33481;-85
2021/10/11 07:17:03;;;;;;;16.67;8.90;;;;;;;14.19;53.53;100634.91;4335898;32;32592;-85
2021/10/11 07:19:31;;;;;;;17.92;10.65;;;;;;;14.08;53.84;100637.03;4362019;32;33770;-85
2021/10/11 07:21:59;;;;;;;32.88;20.02;;;;;;;14.08;53.90;100638.75;4324026;32;33569;-85
2021/10/11 07:24:27;;;;;;;20.67;10.75;;;;;;;14.28;55.15;100643.38;4335817;32;33927;-85
2021/10/11 07:26:54;;;;;;;15.52;9.45;;;;;;;14.29;55.63;100642.47;4335835;32;33858;-85
2021/10/11 07:29:22;;;;;;;20.02;9.98;;;;;;;14.33;55.53;100636.22;4323823;32;32572;-84
2021/10/11 07:31:54;;;;;;;19.83;9.60;;;;;;;14.36;55.41;100637.00;4348596;32;33755;-85
2021/10/11 07:34:22;;;;;;;;;;;;;;;14.33;55.94;100642.34;4351910;32;32783;-84
2021/10/11 07:36:53;;;;;;;16.77;10.40;;;;;;;14.26;57.19;100640.81;4335617;32;33219;-83
2021/10/11 07:39:23;;;;;;;19.80;10.70;;;;;;;14.38;56.29;100629.06;4351809;32;33672;-84
2021/10/11 07:41:50;;;;;;;21.25;10.88;;;;;;;14.30;56.69;100639.78;4336742;32;33910;-85
2021/10/11 07:44:18;;;;;;;14.45;9.77;;;;;;;14.15;57.55;100642.94;4350150;32;31948;-84
2021/10/11 07:46:53;;;;;;;19.87;10.20;;;;;;;14.40;55.61;100629.00;4337787;32;32595;-86
2021/10/11 07:49:33;;;;;;;17.10;10.23;;;;;;;14.42;55.21;100627.22;4339008;32;33433;-86
2021/10/11 07:52:02;;;;;;;15.93;9.90;;;;;;;14.47;56.57;100628.78;4337655;32;32932;-87
2021/10/11 07:54:33;;;;;;;18.25;10.63;;;;;;;14.47;54.29;100627.94;4349625;32;34269;-86
2021/10/11 07:57:04;;;;;;;17.37;10.10;;;;;;;14.77;54.10;100627.81;4335291;32;34173;-86
2021/10/11 07:59:37;;;;;;;17.55;10.63;;;;;;;14.91;54.21;100625.59;4336078;32;34493;-86
2021/10/11 08:02:08;;;;;;;16.37;9.60;;;;;;;15.02;55.42;100623.44;4347890;32;33971;-86
2021/10/11 08:04:37;;;;;;;14.20;8.95;;;;;;;15.11;54.43;100613.53;4347555;32;33702;-85
2021/10/11 08:07:05;;;;;;;20.48;14.15;;;;;;;15.20;54.48;100610.56;4347960;32;34584;-86
2021/10/11 08:09:34;;;;;;;15.43;9.95;;;;;;;15.35;53.35;100610.00;4335527;32;33045;-84
2021/10/11 08:12:03;;;;;;;15.82;9.57;;;;;;;15.38;52.20;100601.16;4348066;32;33305;-85
2021/10/11 08:14:31;;;;;;;21.45;10.35;;;;;;;14.97;52.50;100609.63;4347759;32;33227;-86
2021/10/11 08:16:59;;;;;;;16.62;10.32;;;;;;;15.23;52.84;100606.97;4347623;32;34062;-85
2021/10/11 08:19:31;;;;;;;24.75;13.98;;;;;;;15.13;54.06;100607.31;4335476;32;33995;-86
2021/10/11 08:21:59;;;;;;;18.65;11.48;;;;;;;15.33;53.23;100611.84;4347249;32;33550;-86
2021/10/11 08:24:26;;;;;;;31.40;16.92;;;;;;;15.40;52.04;100607.22;4335306;32;32658;-85
2021/10/11 08:26:55;;;;;;;18.85;11.25;;;;;;;15.40;51.78;100609.00;4349822;32;34818;-85
2021/10/11 08:29:25;;;;;;;19.67;12.00;;;;;;;15.40;52.68;100603.75;4335541;32;33051;-84
2021/10/11 08:31:53;;;;;;;21.40;11.23;;;;;;;15.36;52.53;100610.88;4348542;32;33221;-85
2021/10/11 08:34:22;;;;;;;18.37;10.85;;;;;;;15.24;52.08;100612.16;4335491;32;33474;-85
2021/10/11 08:36:53;;;;;;;16.75;11.00;;;;;;;15.40;52.43;100606.37;4335381;32;33488;-85
2021/10/11 08:39:22;;;;;;;22.45;12.75;;;;;;;15.32;52.33;100602.25;4335706;32;34203;-85
2021/10/11 08:41:52;;;;;;;18.98;11.52;;;;;;;15.48;51.86;100601.69;4335016;32;32694;-84
2021/10/11 08:44:20;;;;;;;15.40;10.98;;;;;;;15.02;53.53;100612.97;4347298;32;33949;-85
2021/10/11 08:46:48;;;;;;;20.55;11.70;;;;;;;15.05;52.68;100611.13;4330189;32;181466;-85
2021/10/11 08:49:17;;;;;;;21.90;11.70;;;;;;;14.83;52.78;100614.50;4325229;32;32461;-85
2021/10/11 08:51:45;;;;;;;19.70;11.35;;;;;;;15.02;52.84;100612.09;4337536;32;32633;-85
2021/10/11 08:54:27;;;;;;;17.80;10.98;;;;;;;15.01;53.01;100618.22;4337524;32;33921;-84
2021/10/11 08:56:56;;;;;;;19.23;11.30;;;;;;;14.90;53.96;100618.62;4335336;32;34518;-85
2021/10/11 08:59:44;;;;;;;19.15;11.55;;;;;;;14.78;53.70;100614.66;4337324;32;33094;-85
2021/10/11 09:02:16;;;;;;;19.15;11.52;;;;;;;14.80;53.47;100614.62;4347362;32;33551;-85
2021/10/11 09:04:55;;;;;;;19.83;10.63;;;;;;;14.82;54.41;100615.41;4346906;32;34193;-85
2021/10/11 09:07:26;;;;;;;19.05;11.07;;;;;;;14.68;55.70;100621.13;4346880;32;33574;-86
2021/10/11 09:09:56;;;;;;;19.75;11.50;;;;;;;14.74;54.64;100618.28;4347517;32;34287;-85
2021/10/11 09:12:27;;;;;;;;;;;;;;;14.82;54.34;100620.66;4338634;32;34084;-85
2021/10/11 09:15:06;;;;;;;17.37;10.63;;;;;;;15.02;55.06;100612.97;4347422;32;34055;-85
2021/10/11 09:17:42;;;;;;;16.30;10.95;;;;;;;15.06;54.99;100610.22;4347183;32;33337;-86
2021/10/11 09:20:15;;;;;;;18.77;11.57;;;;;;;15.13;54.04;100601.19;4347157;32;34011;-86
2021/10/11 09:22:45;;;;;;;20.67;12.43;;;;;;;15.33;54.28;100605.75;4346888;32;32874;-86
2021/10/11 09:25:14;;;;;;;19.45;12.43;;;;;;;15.45;54.88;100601.78;4346477;32;34050;-86
2021/10/11 09:27:53;;;;;;;18.80;10.80;;;;;;;15.42;54.40;100602.75;4334644;32;34120;-86
2021/10/11 09:30:26;;;;;;;19.55;11.68;;;;;;;15.60;52.54;100598.59;4349785;32;34977;-86
2021/10/11 09:33:08;;;;;;;19.90;10.98;;;;;;;15.57;53.60;100601.34;4340335;32;33320;-85
2021/10/11 09:35:38;;;;;;;22.52;15.65;;;;;;;15.79;52.53;100600.50;4352207;32;32790;-85
2021/10/11 09:38:23;;;;;;;21.25;13.23;;;;;;;15.73;52.98;100598.09;4339258;32;33866;-86
2021/10/11 09:40:55;;;;;;;19.75;11.20;;;;;;;15.65;52.31;100591.38;4339523;32;33104;-86
2021/10/11 09:43:26;;;;;;;18.23;11.27;;;;;;;15.78;51.34;100596.16;4351578;32;32906;-85
2021/10/11 09:45:55;;;;;;;20.50;11.43;;;;;;;15.65;52.05;100591.38;4341553;32;33485;-85
2021/10/11 09:48:23;;;;;;;20.40;11.52;;;;;;;15.56;51.72;100586.47;4352138;32;34184;-85
2021/10/11 09:50:54;;;;;;;21.77;11.43;;;;;;;15.12;52.53;100594.25;4340278;32;33310;-87
2021/10/11 09:53:23;;;;;;;17.87;11.52;;;;;;;15.72;52.41;100594.62;4354142;32;33156;-84
2021/10/11 09:55:53;;;;;;;22.30;12.50;;;;;;;15.72;52.39;100592.00;4341169;32;33327;-86
2021/10/11 09:58:21;;;;;;;21.37;11.98;;;;;;;15.66;51.87;100590.47;4353269;32;33441;-86
2021/10/11 10:00:51;;;;;;;19.80;13.18;;;;;;;15.93;51.50;100584.22;4341187;32;32653;-85
2021/10/11 10:03:20;;;;;;;21.23;12.32;;;;;;;15.93;51.95;100582.47;4340829;32;32399;-87
2021/10/11 10:05:49;;;;;;;21.83;11.88;;;;;;;15.67;53.22;100584.28;4352593;32;33302;-84
2021/10/11 10:08:22;;;;;;;24.02;12.95;;;;;;;16.01;51.90;100583.00;4339782;32;33341;-85
2021/10/11 10:10:56;;;;;;;19.12;12.48;;;;;;;16.01;51.90;100580.38;4351241;32;32774;-85
2021/10/11 10:13:25;;;;;;;20.70;12.45;;;;;;;16.00;50.92;100578.66;4340014;32;32637;-85
2021/10/11 10:16:07;;;;;;;26.85;12.98;;;;;;;15.65;51.53;100580.88;4351922;32;32385;-86
2021/10/11 10:18:39;;;;;;;23.70;13.90;;;;;;;15.70;51.06;100575.44;4340230;32;33235;-84
2021/10/11 10:21:08;;;;;;;20.48;13.20;;;;;;;15.63;50.95;100574.81;4353033;32;34522;-84
2021/10/11 10:23:38;;;;;;;25.88;15.75;;;;;;;15.72;51.29;100575.41;4352178;32;34173;-85
2021/10/11 10:26:10;;;;;;;21.58;12.93;;;;;;;15.61;50.90;100568.78;4352322;32;32730;-85
2021/10/11 10:28:43;;;;;;;26.33;16.20;;;;;;;15.62;50.77;100565.25;4338762;32;33103;-86
2021/10/11 10:31:25;;;;;;;20.12;13.75;;;;;;;15.67;50.67;100568.53;4352272;32;34697;-86
2021/10/11 10:33:54;;;;;;;22.65;14.43;;;;;;;15.76;50.31;100555.97;4353191;32;34786;-85
2021/10/11 10:36:26;;;;;;;24.35;14.85;;;;;;;15.83;50.65;100562.72;4340608;32;33649;-85
2021/10/11 10:39:15;;;;;;;23.20;14.73;;;;;;;15.43;51.34;100551.09;4352897;32;33399;-85
2021/10/11 10:41:55;;;;;;;26.17;15.70;;;;;;;15.52;51.66;100550.75;4338254;32;33855;-85
2021/10/11 10:44:25;;;;;;;25.80;15.13;;;;;;;15.30;52.51;100553.31;4351283;32;33507;-86
2021/10/11 10:46:56;;;;;;;27.90;16.55;;;;;;;15.40;52.32;100544.19;4338909;32;33871;-85
2021/10/11 10:49:29;;;;;;;24.05;14.70;;;;;;;15.53;52.33;100547.22;4338057;32;33164;-85
2021/10/11 10:51:57;;;;;;;;;;;;;;;15.17;52.54;100538.03;4354088;32;33404;-85
2021/10/11 10:54:55;;;;;;;24.00;14.85;;;;;;;15.19;52.17;100536.19;4352421;32;32259;-85
2021/10/11 10:57:27;;;;;;;27.58;15.32;;;;;;;15.27;52.15;100532.44;4348908;32;35005;-86
2021/10/11 10:59:56;;;;;;;24.77;15.02;;;;;;;15.24;52.12;100532.56;4336485;32;33479;-85
2021/10/11 11:02:30;;;;;;;27.40;15.55;;;;;;;15.24;52.11;100522.91;4348457;32;34055;-85
2021/10/11 11:05:05;;;;;;;27.83;14.97;;;;;;;15.15;52.24;100525.88;4347622;32;33257;-85
2021/10/11 11:07:38;;;;;;;25.00;16.17;;;;;;;15.22;51.45;100524.72;4348585;32;33743;-85
2021/10/11 11:10:18;;;;;;;29.60;16.92;;;;;;;15.07;52.30;100520.06;4348690;32;35015;-86
2021/10/11 11:12:58;;;;;;;24.90;15.57;;;;;;;15.17;51.84;100518.78;4347423;32;33365;-85
2021/10/11 11:15:36;;;;;;;26.25;15.85;;;;;;;15.24;51.25;100517.66;4354476;32;33066;-86
2021/10/11 11:18:08;;;;;;;29.20;16.48;;;;;;;15.49;50.63;100514.13;4377981;32;33815;-84
2021/10/11 11:20:43;;;;;;;29.90;16.85;;;;;;;15.33;50.75;100511.22;4377827;32;33312;-85
2021/10/11 11:23:28;;;;;;;34.60;21.35;;;;;;;15.35;50.02;100507.59;4366429;32;33110;-86
2021/10/11 11:25:57;;;;;;;34.08;20.83;;;;;;;15.51;49.48;100504.38;4366059;32;33841;-85
2021/10/11 11:28:29;;;;;;;26.92;17.00;;;;;;;15.71;49.22;100506.22;4377775;32;33327;-86